Time;durP1;ratioP1;P1;durP2;ratioP2;P2;SDS_P1;SDS_P2;PMS_P1;PMS_P2;Temp;Humidity;BMP_temperature;BMP_pressure;BME280_temperature;BME280_humidity;BME280_pressure;Samples;Min_cycle;Max_cycle;Signal;HPM_P1;HPM_P2
2021/01/15 00:00:55;;;;;;;12.60;9.00;;;;;;;;;;5077986;28;20551;-72
2021/01/15 00:03:21;;;;;;;10.85;8.85;;;;;;;;;;5085048;28;20286;-73
2021/01/15 00:05:47;;;;;;;12.25;8.82;;;;;;;;;;5082665;28;20192;-73
2021/01/15 00:08:13;;;;;;;12.57;9.02;;;;;;;;;;5071213;28;20180;-74
2021/01/15 00:10:39;;;;;;;11.75;9.00;;;;;;;;;;5096849;28;20249;-74
2021/01/15 00:13:05;;;;;;;10.85;8.38;;;;;;;;;;5091364;28;20529;-74
2021/01/15 00:15:31;;;;;;;13.70;8.85;;;;;;;;;;5090390;28;20179;-72
2021/01/15 00:17:57;;;;;;;15.05;9.10;;;;;;;;;;5073162;28;20182;-75
2021/01/15 00:20:23;;;;;;;11.27;9.00;;;;;;;;;;5080294;28;20176;-73
2021/01/15 00:22:49;;;;;;;12.70;9.15;;;;;;;;;;5074658;28;20204;-75
2021/01/15 00:25:15;;;;;;;12.48;8.20;;;;;;;;;;5077512;28;20206;-73
2021/01/15 00:27:41;;;;;;;11.50;8.13;;;;;;;;;;5091120;28;20172;-76
2021/01/15 00:30:08;;;;;;;10.68;7.72;;;;;;;;;;5094079;28;20172;-73
2021/01/15 00:32:34;;;;;;;12.93;9.60;;;;;;;;;;5080723;28;20200;-71
2021/01/15 00:35:00;;;;;;;11.55;9.10;;;;;;;;;;5081725;28;20191;-73
2021/01/15 00:37:26;;;;;;;11.77;9.32;;;;;;;;;;5076830;28;20179;-74
2021/01/15 00:39:52;;;;;;;11.95;9.00;;;;;;;;;;5081789;28;20569;-75
2021/01/15 00:42:18;;;;;;;9.88;7.85;;;;;;;;;;5094686;28;20521;-74
2021/01/15 00:44:47;;;;;;;10.07;7.72;;;;;;;;;;5086900;28;20557;-73
2021/01/15 00:47:13;;;;;;;10.48;8.50;;;;;;;;;;5074089;28;20250;-74
2021/01/15 00:49:39;;;;;;;10.60;8.68;;;;;;;;;;5078148;28;20187;-73
2021/01/15 00:52:06;;;;;;;12.75;9.55;;;;;;;;;;5074184;28;20266;-73
2021/01/15 00:54:32;;;;;;;13.15;9.45;;;;;;;;;;5073886;28;20191;-73
2021/01/15 00:57:02;;;;;;;13.63;8.85;;;;;;;;;;5074406;28;20188;-72
2021/01/15 00:59:28;;;;;;;15.27;10.30;;;;;;;;;;5074304;28;20176;-73
2021/01/15 01:01:54;;;;;;;13.38;10.27;;;;;;;;;;5075919;28;20282;-73
2021/01/15 01:04:20;;;;;;;14.25;10.70;;;;;;;;;;5084860;28;20200;-75
2021/01/15 01:06:46;;;;;;;13.90;10.73;;;;;;;;;;5073546;28;20249;-72
2021/01/15 01:09:12;;;;;;;16.85;10.90;;;;;;;;;;5088297;28;20167;-72
2021/01/15 01:11:39;;;;;;;14.73;10.65;;;;;;;;;;5082563;27;20200;-74
2021/01/15 01:14:05;;;;;;;13.60;10.68;;;;;;;;;;5073446;28;20229;-74
2021/01/15 01:16:31;;;;;;;15.88;11.10;;;;;;;;;;5073760;28;20183;-72
2021/01/15 01:18:58;;;;;;;15.82;11.25;;;;;;;;;;5073837;28;20180;-74
2021/01/15 01:21:24;;;;;;;16.20;11.20;;;;;;;;;;5073418;28;20290;-72
2021/01/15 01:23:51;;;;;;;14.02;10.90;;;;;;;;;;5080484;28;20662;-74
2021/01/15 01:26:17;;;;;;;15.30;11.63;;;;;;;;;;5085712;28;20529;-72
2021/01/15 01:28:44;;;;;;;15.35;10.63;;;;;;;;;;5093282;28;20167;-73
2021/01/15 01:31:10;;;;;;;17.50;12.68;;;;;;;;;;5085718;28;20283;-74
2021/01/15 01:33:37;;;;;;;18.20;12.50;;;;;;;;;;5090966;28;20190;-74
2021/01/15 01:36:04;;;;;;;17.58;12.18;;;;;;;;;;5073998;28;20180;-73
2021/01/15 01:38:30;;;;;;;22.17;13.43;;;;;;;;;;5073415;28;20605;-72
2021/01/15 01:40:56;;;;;;;17.15;12.73;;;;;;;;;;5091953;28;20698;-74
2021/01/15 01:43:22;;;;;;;18.85;12.95;;;;;;;;;;5091266;28;20202;-74
2021/01/15 01:45:48;;;;;;;16.67;12.63;;;;;;;;;;5081887;28;20175;-74
2021/01/15 01:48:15;;;;;;;21.08;13.77;;;;;;;;;;5087701;28;20324;-74
2021/01/15 01:50:41;;;;;;;16.90;12.05;;;;;;;;;;5078438;28;20224;-73
2021/01/15 01:53:08;;;;;;;20.27;13.25;;;;;;;;;;5093804;28;20167;-73
2021/01/15 01:55:34;;;;;;;23.60;13.98;;;;;;;;;;5092570;28;20179;-74
2021/01/15 01:58:00;;;;;;;19.60;14.13;;;;;;;;;;5090156;28;20183;-73
2021/01/15 02:00:27;;;;;;;20.98;13.70;;;;;;;;;;5075070;28;20667;-73
2021/01/15 02:02:53;;;;;;;21.67;13.35;;;;;;;;;;5089709;28;20198;-73
2021/01/15 02:05:19;;;;;;;21.40;13.57;;;;;;;;;;5073360;28;20231;-73
2021/01/15 02:07:45;;;;;;;18.80;13.40;;;;;;;;;;5076544;28;20215;-73
2021/01/15 02:10:21;;;;;;;20.05;13.13;;;;;;;;;;5085802;28;20186;-73
2021/01/15 02:12:59;;;;;;;20.25;13.75;;;;;;;;;;5092672;28;20202;-74
2021/01/15 02:15:39;;;;;;;21.48;13.32;;;;;;;;;;5092562;28;20183;-74
2021/01/15 02:18:17;;;;;;;16.92;12.48;;;;;;;;;;5076994;28;20179;-74
2021/01/15 02:20:43;;;;;;;20.55;13.20;;;;;;;;;;5075810;28;20217;-75
2021/01/15 02:23:12;;;;;;;22.50;14.10;;;;;;;;;;5092847;28;20619;-76
2021/01/15 02:25:56;;;;;;;20.73;13.93;;;;;;;;;;5092366;28;20507;-74
2021/01/15 02:29:01;;;;;;;21.73;14.10;;;;;;;;;;5093019;28;20179;-73
2021/01/15 02:31:33;;;;;;;18.63;13.05;;;;;;;;;;5071221;28;20222;-72
2021/01/15 02:34:08;;;;;;;18.85;13.55;;;;;;;;;;5074258;28;20188;-73
2021/01/15 02:36:40;;;;;;;22.05;14.13;;;;;;;;;;5072224;28;20188;-72
2021/01/15 02:39:16;;;;;;;22.05;13.23;;;;;;;;;;5088325;28;20215;-74
2021/01/15 02:41:43;;;;;;;20.27;14.05;;;;;;;;;;5090559;28;20217;-72
2021/01/15 02:44:12;;;;;;;21.83;13.43;;;;;;;;;;5096454;28;20199;-71
2021/01/15 02:46:41;;;;;;;20.45;13.75;;;;;;;;;;5096039;28;20205;-73
2021/01/15 02:49:11;;;;;;;19.10;13.30;;;;;;;;;;5086846;28;20767;-74
2021/01/15 02:51:39;;;;;;;19.65;14.55;;;;;;;;;;5083009;28;20192;-73
2021/01/15 02:54:05;;;;;;;22.80;14.63;;;;;;;;;;5085303;28;20184;-72
2021/01/15 02:56:31;;;;;;;22.38;13.70;;;;;;;;;;5082272;28;20191;-74
2021/01/15 02:58:57;;;;;;;21.15;14.50;;;;;;;;;;5083342;28;20257;-73
2021/01/15 03:01:23;;;;;;;20.65;13.75;;;;;;;;;;5088565;28;20192;-74
2021/01/15 03:03:50;;;;;;;19.88;13.75;;;;;;;;;;5084878;28;20534;-74
2021/01/15 03:06:38;;;;;;;20.13;13.95;;;;;;;;;;5079447;28;20517;-74
2021/01/15 03:09:06;;;;;;;22.75;14.23;;;;;;;;;;5095506;28;20167;-73
2021/01/15 03:11:33;;;;;;;20.70;13.60;;;;;;;;;;5093899;28;20264;-73
2021/01/15 03:14:00;;;;;;;20.00;13.98;;;;;;;;;;5095786;28;20233;-73
2021/01/15 03:16:28;;;;;;;18.20;13.30;;;;;;;;;;5093330;28;20192;-73
2021/01/15 03:18:55;;;;;;;19.33;13.00;;;;;;;;;;5095354;28;20252;-73
2021/01/15 03:21:21;;;;;;;20.13;13.80;;;;;;;;;;5086913;28;20206;-74
2021/01/15 03:23:47;;;;;;;19.20;12.82;;;;;;;;;;5094573;28;20207;-74
2021/01/15 03:26:14;;;;;;;19.17;12.43;;;;;;;;;;5079441;28;20186;-74
2021/01/15 03:28:40;;;;;;;16.77;11.73;;;;;;;;;;5088468;28;20168;-73
2021/01/15 03:31:06;;;;;;;17.77;12.23;;;;;;;;;;5095826;28;20686;-73
2021/01/15 03:33:32;;;;;;;20.70;12.57;;;;;;;;;;5095471;28;20183;-73
2021/01/15 03:35:58;;;;;;;17.20;12.00;;;;;;;;;;5095818;28;20175;-73
2021/01/15 03:38:24;;;;;;;19.20;12.05;;;;;;;;;;5081557;28;20202;-73
2021/01/15 03:40:50;;;;;;;17.15;11.13;;;;;;;;;;5085727;28;20184;-74
2021/01/15 03:43:23;;;;;;;18.77;11.73;;;;;;;;;;5076381;28;20653;-73
2021/01/15 03:45:50;;;;;;;16.73;11.30;;;;;;;;;;5090977;28;20206;-73
2021/01/15 03:48:17;;;;;;;20.05;11.35;;;;;;;;;;5093102;28;20533;-73
2021/01/15 03:50:43;;;;;;;16.17;11.85;;;;;;;;;;5084162;28;20172;-73
2021/01/15 03:53:10;;;;;;;13.95;10.20;;;;;;;;;;5077717;28;20176;-73
2021/01/15 03:55:36;;;;;;;15.35;10.15;;;;;;;;;;5088922;28;20260;-74
2021/01/15 03:58:02;;;;;;;13.05;9.60;;;;;;;;;;5084917;28;20661;-73
2021/01/15 04:00:28;;;;;;;12.30;9.02;;;;;;;;;;5077254;28;20234;-73
2021/01/15 04:02:54;;;;;;;18.08;10.27;;;;;;;;;;5079845;28;20200;-72
2021/01/15 04:05:20;;;;;;;12.88;9.45;;;;;;;;;;5088380;28;20257;-74
2021/01/15 04:07:46;;;;;;;12.38;8.57;;;;;;;;;;5085472;28;20263;-75
2021/01/15 04:10:14;;;;;;;13.98;9.10;;;;;;;;;;5102493;28;20168;-72
2021/01/15 04:12:40;;;;;;;14.25;9.52;;;;;;;;;;5084533;28;20199;-73
2021/01/15 04:15:10;;;;;;;11.35;8.88;;;;;;;;;;5076726;28;20184;-73
2021/01/15 04:17:36;;;;;;;13.57;8.20;;;;;;;;;;5092986;28;20663;-73
2021/01/15 04:20:06;;;;;;;15.98;9.55;;;;;;;;;;5094900;28;20564;-74
2021/01/15 04:22:36;;;;;;;12.45;7.68;;;;;;;;;;5086189;28;20191;-73
2021/01/15 04:25:02;;;;;;;14.43;8.88;;;;;;;;;;5075784;28;20204;-73
2021/01/15 04:27:32;;;;;;;11.80;7.90;;;;;;;;;;5081389;28;20172;-73
2021/01/15 04:29:58;;;;;;;12.38;9.18;;;;;;;;;;5086623;28;20207;-73
2021/01/15 04:32:25;;;;;;;11.85;8.00;;;;;;;;;;5087988;28;20270;-73
2021/01/15 04:34:51;;;;;;;11.48;9.25;;;;;;;;;;5080124;28;20536;-73
2021/01/15 04:37:17;;;;;;;14.93;9.10;;;;;;;;;;5082391;28;20176;-74
2021/01/15 04:39:43;;;;;;;12.55;8.93;;;;;;;;;;5077786;28;20293;-73
2021/01/15 04:42:09;;;;;;;13.20;8.95;;;;;;;;;;5081890;28;20215;-74
2021/01/15 04:44:35;;;;;;;12.40;8.85;;;;;;;;;;5080088;28;20192;-74
2021/01/15 04:47:02;;;;;;;13.13;8.82;;;;;;;;;;5088935;28;20187;-73
2021/01/15 04:49:30;;;;;;;15.05;8.75;;;;;;;;;;5086618;28;20544;-73
2021/01/15 04:51:57;;;;;;;13.07;8.68;;;;;;;;;;5090299;28;20702;-73
2021/01/15 04:54:35;;;;;;;12.25;8.20;;;;;;;;;;5087358;28;20266;-73
2021/01/15 04:57:04;;;;;;;11.85;8.50;;;;;;;;;;5074195;28;20537;-73
2021/01/15 04:59:33;;;;;;;11.00;8.05;;;;;;;;;;5077510;28;20278;-74
2021/01/15 05:02:01;;;;;;;13.63;8.77;;;;;;;;;;5084613;28;20565;-73
2021/01/15 05:04:30;;;;;;;11.60;7.90;;;;;;;;;;5075393;28;20588;-72
2021/01/15 05:06:57;;;;;;;12.65;9.23;;;;;;;;;;5087862;28;20205;-73
2021/01/15 05:09:24;;;;;;;13.63;9.35;;;;;;;;;;5101778;28;20523;-72
2021/01/15 05:11:51;;;;;;;12.98;8.57;;;;;;;;;;5093266;28;20195;-72
2021/01/15 05:14:18;;;;;;;12.85;8.57;;;;;;;;;;5083259;28;20183;-73
2021/01/15 05:16:45;;;;;;;13.02;8.63;;;;;;;;;;5083545;28;20254;-73
2021/01/15 05:19:11;;;;;;;10.90;8.00;;;;;;;;;;5092944;28;20210;-74
2021/01/15 05:21:38;;;;;;;12.35;7.85;;;;;;;;;;5085672;28;20295;-74
2021/01/15 05:24:08;;;;;;;11.43;8.50;;;;;;;;;;5080171;28;20203;-73
2021/01/15 05:26:35;;;;;;;14.82;8.57;;;;;;;;;;5073659;28;20173;-72
2021/01/15 05:29:01;;;;;;;13.07;9.00;;;;;;;;;;5083357;28;20258;-74
2021/01/15 05:31:27;;;;;;;12.40;8.70;;;;;;;;;;5086116;28;20270;-74
2021/01/15 05:34:04;;;;;;;12.63;9.93;;;;;;;;;;5073086;28;20176;-74
2021/01/15 05:36:30;;;;;;;13.23;8.65;;;;;;;;;;5093487;28;20179;-74
2021/01/15 05:39:13;;;;;;;17.35;9.82;;;;;;;;;;5093569;28;20175;-73
2021/01/15 05:41:39;;;;;;;12.98;8.55;;;;;;;;;;5081812;28;20199;-73
2021/01/15 05:44:06;;;;;;;12.77;8.52;;;;;;;;;;5091390;28;20307;-72
2021/01/15 05:46:32;;;;;;;12.68;8.60;;;;;;;;;;5082833;28;20211;-73
2021/01/15 05:49:07;;;;;;;15.45;8.90;;;;;;;;;;5073337;28;20172;-73
2021/01/15 05:51:37;;;;;;;12.80;8.30;;;;;;;;;;5083747;28;20209;-75
2021/01/15 05:54:04;;;;;;;12.80;8.82;;;;;;;;;;5074059;28;20175;-74
2021/01/15 05:56:46;;;;;;;11.77;8.68;;;;;;;;;;5073206;28;20186;-74
2021/01/15 05:59:13;;;;;;;13.75;9.50;;;;;;;;;;5080065;28;20230;-75
2021/01/15 06:01:46;;;;;;;14.27;9.23;;;;;;;;;;5083512;28;20207;-74
2021/01/15 06:04:14;;;;;;;13.48;8.85;;;;;;;;;;5081941;28;20653;-74
2021/01/15 06:06:41;;;;;;;12.65;8.98;;;;;;;;;;5088786;28;20198;-74
2021/01/15 06:09:08;;;;;;;13.27;9.20;;;;;;;;;;5100393;28;20212;-73
2021/01/15 06:11:34;;;;;;;12.23;8.65;;;;;;;;;;5086397;28;20191;-74
2021/01/15 06:14:01;;;;;;;12.73;10.07;;;;;;;;;;5092951;28;20202;-72
2021/01/15 06:16:27;;;;;;;12.60;9.07;;;;;;;;;;5089387;28;20206;-73
2021/01/15 06:19:00;;;;;;;14.30;9.43;;;;;;;;;;5092893;28;20179;-73
2021/01/15 06:21:31;;;;;;;11.88;8.57;;;;;;;;;;5091761;28;20680;-74
2021/01/15 06:23:59;;;;;;;11.77;7.82;;;;;;;;;;5081048;28;20231;-74
2021/01/15 06:26:33;;;;;;;12.70;9.73;;;;;;;;;;5072973;28;20549;-74
2021/01/15 06:29:10;;;;;;;11.07;7.30;;;;;;;;;;5082565;28;20176;-74
2021/01/15 06:31:48;;;;;;;13.02;9.60;;;;;;;;;;5088458;28;20202;-75
2021/01/15 06:34:18;;;;;;;15.70;9.80;;;;;;;;;;5092932;28;20258;-74
2021/01/15 06:36:54;;;;;;;14.00;9.07;;;;;;;;;;5093086;28;20183;-74
2021/01/15 06:39:20;;;;;;;12.68;9.70;;;;;;;;;;5077616;28;20176;-74
2021/01/15 06:41:47;;;;;;;14.15;9.25;;;;;;;;;;5086751;28;20286;-75
2021/01/15 06:44:15;;;;;;;11.80;8.38;;;;;;;;;;5092852;28;20199;-74
2021/01/15 06:46:45;;;;;;;13.63;9.77;;;;;;;;;;5092347;28;20179;-74
2021/01/15 06:49:15;;;;;;;14.02;9.10;;;;;;;;;;5079877;28;20196;-74
2021/01/15 06:52:00;;;;;;;13.30;9.75;;;;;;;;;;5092161;28;20605;-74
2021/01/15 06:54:35;;;;;;;15.80;11.00;;;;;;;;;;5087687;28;20217;-74
2021/01/15 06:57:20;;;;;;;12.98;9.88;;;;;;;;;;5092267;28;20172;-73
2021/01/15 06:59:51;;;;;;;12.90;9.20;;;;;;;;;;5082962;28;20249;-72
2021/01/15 07:02:41;;;;;;;15.65;10.02;;;;;;;;;;5091797;28;20214;-73
2021/01/15 07:05:12;;;;;;;13.63;9.15;;;;;;;;;;5090985;28;20629;-74
2021/01/15 07:07:38;;;;;;;14.75;9.65;;;;;;;;;;5092344;28;20183;-73
2021/01/15 07:10:05;;;;;;;14.32;9.48;;;;;;;;;;5084192;28;20665;-73
2021/01/15 07:12:40;;;;;;;14.10;10.02;;;;;;;;;;5090923;28;20235;-74
2021/01/15 07:15:11;;;;;;;16.65;10.13;;;;;;;;;;5082867;28;20178;-73
2021/01/15 07:17:37;;;;;;;14.10;9.30;;;;;;;;;;5086423;28;20518;-74
2021/01/15 07:20:07;;;;;;;14.48;10.88;;;;;;;;;;5075604;28;20180;-73
2021/01/15 07:22:44;;;;;;;14.60;9.95;;;;;;;;;;5075124;28;20204;-74
2021/01/15 07:25:11;;;;;;;12.90;9.43;;;;;;;;;;5077604;28;20290;-73
2021/01/15 07:27:37;;;;;;;12.35;9.27;;;;;;;;;;5075963;28;20610;-73
2021/01/15 07:30:04;;;;;;;14.23;10.10;;;;;;;;;;5094200;28;20187;-74
2021/01/15 07:32:31;;;;;;;15.18;10.38;;;;;;;;;;5084073;28;20196;-72
2021/01/15 07:34:59;;;;;;;13.30;9.77;;;;;;;;;;5088896;28;20177;-75
2021/01/15 07:37:26;;;;;;;14.13;10.23;;;;;;;;;;5075682;28;20176;-74
2021/01/15 07:39:59;;;;;;;13.52;10.40;;;;;;;;;;5075701;28;20176;-75
2021/01/15 07:42:42;;;;;;;14.88;10.20;;;;;;;;;;5074063;28;20202;-74
2021/01/15 07:45:09;;;;;;;15.73;9.85;;;;;;;;;;5086792;28;20536;-73
2021/01/15 07:47:38;;;;;;;15.43;10.90;;;;;;;;;;5091647;28;20172;-74
2021/01/15 07:50:07;;;;;;;14.20;9.85;;;;;;;;;;5088615;28;20667;-74
2021/01/15 07:52:34;;;;;;;11.70;9.00;;;;;;;;;;5080549;28;20259;-75
2021/01/15 07:55:03;;;;;;;15.07;10.48;;;;;;;;;;5082281;28;20184;-74
2021/01/15 07:57:30;;;;;;;15.43;10.45;;;;;;;;;;5082034;28;20179;-73
2021/01/15 07:59:56;;;;;;;15.70;11.02;;;;;;;;;;5091407;28;20199;-74
2021/01/15 08:02:23;;;;;;;17.05;11.32;;;;;;;;;;5074704;28;20208;-73
2021/01/15 08:04:49;;;;;;;14.52;10.85;;;;;;;;;;5084423;28;20683;-74
2021/01/15 08:07:15;;;;;;;15.30;10.50;;;;;;;;;;5076866;28;20194;-73
2021/01/15 08:09:41;;;;;;;17.10;10.65;;;;;;;;;;5096558;28;20985;-73
2021/01/15 08:12:08;;;;;;;20.02;12.55;;;;;;;;;;5080163;28;20199;-72
2021/01/15 08:14:34;;;;;;;17.67;12.05;;;;;;;;;;5090609;28;20270;-74
2021/01/15 08:17:00;;;;;;;17.10;10.70;;;;;;;;;;5091041;28;20555;-74
2021/01/15 08:19:27;;;;;;;16.52;11.32;;;;;;;;;;5091196;28;20881;-74
2021/01/15 08:21:53;;;;;;;16.40;11.85;;;;;;;;;;5083795;28;20200;-74
2021/01/15 08:24:22;;;;;;;20.17;12.60;;;;;;;;;;5075602;28;20216;-74
2021/01/15 08:26:51;;;;;;;18.27;11.13;;;;;;;;;;5075459;28;20587;-74
2021/01/15 08:29:17;;;;;;;17.95;11.43;;;;;;;;;;5085504;28;20183;-75
2021/01/15 08:31:46;;;;;;;21.48;13.70;;;;;;;;;;5079940;28;20211;-75
2021/01/15 08:34:13;;;;;;;19.10;12.02;;;;;;;;;;5070377;28;20191;-76
2021/01/15 08:36:44;;;;;;;17.02;11.27;;;;;;;;;;5073354;28;20207;-76
2021/01/15 08:39:10;;;;;;;16.75;11.43;;;;;;;;;;5079768;28;20184;-73
2021/01/15 08:41:37;;;;;;;18.85;13.05;;;;;;;;;;5072519;28;20210;-74
2021/01/15 08:44:03;;;;;;;16.52;11.88;;;;;;;;;;5081415;28;20545;-75
2021/01/15 08:46:31;;;;;;;16.77;11.48;;;;;;;;;;5081098;28;20226;-73
2021/01/15 08:48:57;;;;;;;17.00;11.73;;;;;;;;;;5070576;28;20507;-74
2021/01/15 08:51:26;;;;;;;17.52;11.80;;;;;;;;;;5070637;28;20207;-71
2021/01/15 08:54:09;;;;;;;17.08;11.55;;;;;;;;;;5076731;28;20184;-72
2021/01/15 08:56:42;;;;;;;18.77;11.57;;;;;;;;;;5088959;28;20183;-73
2021/01/15 08:59:10;;;;;;;18.40;12.25;;;;;;;;;;5077812;28;20175;-73
2021/01/15 09:01:38;;;;;;;16.50;10.48;;;;;;;;;;5087691;28;20203;-73
2021/01/15 09:04:05;;;;;;;19.10;12.25;;;;;;;;;;5089237;28;20235;-72
2021/01/15 09:06:32;;;;;;;19.50;12.20;;;;;;;;;;5090286;28;20192;-73
2021/01/15 09:08:58;;;;;;;17.33;11.25;;;;;;;;;;5078370;28;20206;-73
2021/01/15 09:11:31;;;;;;;17.38;11.65;;;;;;;;;;5090344;28;20195;-74
2021/01/15 09:13:57;;;;;;;17.63;11.57;;;;;;;;;;5089676;28;20184;-73
2021/01/15 09:16:24;;;;;;;19.00;11.00;;;;;;;;;;5076820;28;20221;-75
2021/01/15 09:18:54;;;;;;;17.15;11.07;;;;;;;;;;5070714;28;20188;-76
2021/01/15 09:21:21;;;;;;;16.05;10.75;;;;;;;;;;5090094;28;20210;-75
2021/01/15 09:23:48;;;;;;;15.98;10.48;;;;;;;;;;5089255;28;20199;-73
2021/01/15 09:26:16;;;;;;;16.42;11.00;;;;;;;;;;5089988;28;20280;-73
2021/01/15 09:28:41;;;;;;;16.65;10.88;;;;;;;;;;5089739;28;20531;-73
2021/01/15 09:31:07;;;;;;;15.65;11.20;;;;;;;;;;5083147;28;20283;-74
2021/01/15 09:33:45;;;;;;;18.00;10.82;;;;;;;;;;5069387;28;20233;-73
2021/01/15 09:36:14;;;;;;;18.92;12.25;;;;;;;;;;5078487;28;20187;-74
2021/01/15 09:38:40;;;;;;;19.75;11.65;;;;;;;;;;5089539;28;20222;-72
2021/01/15 09:41:06;;;;;;;17.58;11.85;;;;;;;;;;5086881;28;20195;-74
2021/01/15 09:43:32;;;;;;;17.75;11.75;;;;;;;;;;5088851;28;20205;-73
2021/01/15 09:45:59;;;;;;;17.15;10.90;;;;;;;;;;5081127;28;20653;-75
2021/01/15 09:48:25;;;;;;;17.55;10.70;;;;;;;;;;5067698;28;20183;-76
2021/01/15 09:50:51;;;;;;;18.27;11.23;;;;;;;;;;5081820;28;20184;-73
2021/01/15 09:53:17;;;;;;;17.17;11.32;;;;;;;;;;5087413;28;20871;-75
2021/01/15 09:55:43;;;;;;;17.30;11.60;;;;;;;;;;5071884;28;20274;-73
2021/01/15 09:58:09;;;;;;;17.73;11.23;;;;;;;;;;5090250;28;20623;-76
2021/01/15 10:00:35;;;;;;;16.25;11.50;;;;;;;;;;5079068;28;20795;-73
2021/01/15 10:03:01;;;;;;;19.05;11.93;;;;;;;;;;5072111;28;20764;-75
2021/01/15 10:05:27;;;;;;;17.83;11.00;;;;;;;;;;5079899;28;20265;-76
2021/01/15 10:07:53;;;;;;;15.68;10.82;;;;;;;;;;5069907;28;20264;-74
2021/01/15 10:10:23;;;;;;;20.08;11.57;;;;;;;;;;5087416;28;20179;-75
2021/01/15 10:12:49;;;;;;;18.25;11.15;;;;;;;;;;5089696;28;20282;-76
2021/01/15 10:15:15;;;;;;;19.33;13.10;;;;;;;;;;5077788;28;20270;-74
2021/01/15 10:17:45;;;;;;;20.63;11.73;;;;;;;;;;5069295;28;20668;-72
2021/01/15 10:20:11;;;;;;;18.85;11.75;;;;;;;;;;5079889;28;20192;-76
2021/01/15 10:22:37;;;;;;;16.80;10.85;;;;;;;;;;5069530;28;20279;-73
2021/01/15 10:25:04;;;;;;;15.32;10.77;;;;;;;;;;5083269;28;20208;-74
2021/01/15 10:27:30;;;;;;;15.00;10.27;;;;;;;;;;5071523;28;20519;-74
2021/01/15 10:29:56;;;;;;;14.75;10.30;;;;;;;;;;5072244;28;20176;-75
2021/01/15 10:32:22;;;;;;;14.88;9.52;;;;;;;;;;5074750;28;20244;-72
2021/01/15 10:34:48;;;;;;;16.73;10.90;;;;;;;;;;5087050;28;20683;-73
2021/01/15 10:37:14;;;;;;;16.08;10.73;;;;;;;;;;5087969;28;20648;-74
2021/01/15 10:39:40;;;;;;;15.30;10.18;;;;;;;;;;5087541;28;20198;-74
2021/01/15 10:42:06;;;;;;;15.10;10.00;;;;;;;;;;5089272;28;20206;-75
2021/01/15 10:44:32;;;;;;;17.63;10.93;;;;;;;;;;5084722;28;20576;-76
2021/01/15 10:46:58;;;;;;;17.60;10.88;;;;;;;;;;5088957;28;20601;-74
2021/01/15 10:49:24;;;;;;;18.20;10.35;;;;;;;;;;5088696;28;20258;-75
2021/01/15 10:51:55;;;;;;;14.95;10.40;;;;;;;;;;5088590;28;20591;-73
2021/01/15 10:54:21;;;;;;;13.18;10.00;;;;;;;;;;5084611;28;20593;-73
2021/01/15 10:56:48;;;;;;;17.45;10.27;;;;;;;;;;5083511;28;20186;-72
2021/01/15 10:59:14;;;;;;;14.40;9.57;;;;;;;;;;5085759;28;20661;-74
2021/01/15 11:01:41;;;;;;;13.38;8.60;;;;;;;;;;5084783;28;20200;-74
2021/01/15 11:04:08;;;;;;;14.73;9.45;;;;;;;;;;5092156;28;20209;-75
2021/01/15 11:06:35;;;;;;;15.95;10.25;;;;;;;;;;5080563;28;20195;-74
2021/01/15 11:09:01;;;;;;;15.30;10.40;;;;;;;;;;5076497;28;20614;-74
2021/01/15 11:11:27;;;;;;;17.90;9.82;;;;;;;;;;5072429;28;20283;-74
2021/01/15 11:13:53;;;;;;;14.65;9.52;;;;;;;;;;5073364;28;20184;-72
2021/01/15 11:16:19;;;;;;;14.18;9.38;;;;;;;;;;5072256;28;20618;-73
2021/01/15 11:18:45;;;;;;;15.07;9.10;;;;;;;;;;5076810;28;20273;-72
2021/01/15 11:21:11;;;;;;;14.38;10.20;;;;;;;;;;5084217;28;20211;-74
2021/01/15 11:23:37;;;;;;;13.50;8.98;;;;;;;;;;5073158;28;20210;-72
2021/01/15 11:26:04;;;;;;;13.98;8.68;;;;;;;;;;5074085;28;20180;-73
2021/01/15 11:28:30;;;;;;;13.00;8.73;;;;;;;;;;5087205;28;20177;-72
2021/01/15 11:30:56;;;;;;;16.15;10.57;;;;;;;;;;5072204;28;20800;-76
2021/01/15 11:33:22;;;;;;;11.88;8.35;;;;;;;;;;5073948;28;20184;-72
2021/01/15 11:35:49;;;;;;;14.65;9.65;;;;;;;;;;5078767;28;20179;-72
2021/01/15 11:38:15;;;;;;;13.85;9.50;;;;;;;;;;5090860;28;20262;-73
2021/01/15 11:40:41;;;;;;;13.73;9.63;;;;;;;;;;5078868;28;20184;-74
2021/01/15 11:43:07;;;;;;;17.42;8.93;;;;;;;;;;5084537;28;20191;-74
2021/01/15 11:45:33;;;;;;;14.02;10.10;;;;;;;;;;5091736;28;20207;-74
2021/01/15 11:47:59;;;;;;;13.45;9.27;;;;;;;;;;5085635;28;20187;-74
2021/01/15 11:50:25;;;;;;;12.52;9.40;;;;;;;;;;5076342;28;20177;-75
2021/01/15 11:52:55;;;;;;;13.88;9.18;;;;;;;;;;5085685;28;20204;-74
2021/01/15 11:55:21;;;;;;;13.05;9.07;;;;;;;;;;5091135;28;20191;-73
2021/01/15 11:57:51;;;;;;;13.60;8.75;;;;;;;;;;5090303;28;20186;-72
2021/01/15 12:00:17;;;;;;;13.70;9.30;;;;;;;;;;5091638;28;20201;-75
2021/01/15 12:02:44;;;;;;;12.18;7.55;;;;;;;;;;5091107;28;20218;-73
2021/01/15 12:05:10;;;;;;;11.20;7.55;;;;;;;;;;5090392;28;20206;-74
2021/01/15 12:07:37;;;;;;;12.60;9.52;;;;;;;;;;5071549;28;20200;-73
2021/01/15 12:10:04;;;;;;;11.23;8.02;;;;;;;;;;5073000;28;20172;-75
2021/01/15 12:12:30;;;;;;;11.98;8.60;;;;;;;;;;5071311;28;20607;-73
2021/01/15 12:14:56;;;;;;;11.40;8.13;;;;;;;;;;5071257;28;20191;-71
2021/01/15 12:17:22;;;;;;;14.35;8.70;;;;;;;;;;5091591;28;20275;-75
2021/01/15 12:19:48;;;;;;;11.27;8.18;;;;;;;;;;5077230;28;20191;-76
2021/01/15 12:22:14;;;;;;;13.10;8.90;;;;;;;;;;5091286;28;20676;-74
2021/01/15 12:24:40;;;;;;;11.80;8.30;;;;;;;;;;5090543;28;20203;-75
2021/01/15 12:27:06;;;;;;;10.75;8.38;;;;;;;;;;5082910;28;20668;-74
2021/01/15 12:29:32;;;;;;;11.15;8.25;;;;;;;;;;5085259;28;20189;-74
2021/01/15 12:31:58;;;;;;;10.75;8.27;;;;;;;;;;5078218;28;20281;-75
2021/01/15 12:34:25;;;;;;;10.80;8.00;;;;;;;;;;5088062;28;20667;-74
2021/01/15 12:36:51;;;;;;;12.48;8.20;;;;;;;;;;5090809;28;20270;-72
2021/01/15 12:39:17;;;;;;;11.57;8.52;;;;;;;;;;5072940;28;20639;-73
2021/01/15 12:41:43;;;;;;;12.48;8.05;;;;;;;;;;5080908;28;20231;-74
2021/01/15 12:44:09;;;;;;;10.77;8.23;;;;;;;;;;5085514;28;20203;-74
2021/01/15 12:46:38;;;;;;;11.75;8.10;;;;;;;;;;5079096;28;20608;-75
2021/01/15 12:49:04;;;;;;;11.00;7.88;;;;;;;;;;5080889;28;20240;-72
2021/01/15 12:51:30;;;;;;;11.35;7.38;;;;;;;;;;5090544;28;20203;-74
2021/01/15 12:53:56;;;;;;;9.90;7.28;;;;;;;;;;5070656;28;20665;-73
2021/01/15 12:56:22;;;;;;;9.63;7.30;;;;;;;;;;5070229;28;20184;-74
2021/01/15 12:58:48;;;;;;;10.82;7.93;;;;;;;;;;5084197;28;20264;-73
2021/01/15 13:01:14;;;;;;;13.27;7.65;;;;;;;;;;5089799;28;20199;-74
2021/01/15 13:03:40;;;;;;;8.35;6.47;;;;;;;;;;5077316;28;20207;-75
2021/01/15 13:06:06;;;;;;;9.50;6.85;;;;;;;;;;5090279;28;20214;-73
2021/01/15 13:08:33;;;;;;;9.48;6.78;;;;;;;;;;5091915;28;20221;-75
2021/01/15 13:10:59;;;;;;;10.93;7.90;;;;;;;;;;5097936;28;20637;-75
2021/01/15 13:13:24;;;;;;;13.50;7.32;;;;;;;;;;5079590;28;20207;-75
2021/01/15 13:15:50;;;;;;;9.70;7.50;;;;;;;;;;5089509;28;20186;-74
2021/01/15 13:18:16;;;;;;;11.77;8.68;;;;;;;;;;5088609;28;20183;-73
2021/01/15 13:20:42;;;;;;;11.55;8.10;;;;;;;;;;5088087;28;20187;-74
2021/01/15 13:23:11;;;;;;;11.43;7.97;;;;;;;;;;5088599;28;20191;-75
2021/01/15 13:25:38;;;;;;;13.85;8.35;;;;;;;;;;5089290;28;20624;-75
2021/01/15 13:28:08;;;;;;;11.68;7.82;;;;;;;;;;5089393;28;20201;-74
2021/01/15 13:30:35;;;;;;;10.48;7.38;;;;;;;;;;5087015;28;20179;-72
2021/01/15 13:33:04;;;;;;;10.90;7.50;;;;;;;;;;5089767;28;20253;-75
2021/01/15 13:35:31;;;;;;;10.93;7.22;;;;;;;;;;5078433;28;20241;-74
2021/01/15 13:37:57;;;;;;;9.77;7.05;;;;;;;;;;5089386;28;20262;-74
2021/01/15 13:40:23;;;;;;;11.80;8.13;;;;;;;;;;5089426;28;20180;-73
2021/01/15 13:42:49;;;;;;;10.75;7.30;;;;;;;;;;5089359;28;20207;-73
2021/01/15 13:45:15;;;;;;;10.25;7.40;;;;;;;;;;5089657;28;20595;-73
2021/01/15 13:47:41;;;;;;;8.98;7.20;;;;;;;;;;5090201;28;20186;-76
2021/01/15 13:50:20;;;;;;;7.32;6.30;;;;;;;;;;5089707;28;20179;-74
2021/01/15 13:52:50;;;;;;;8.82;6.82;;;;;;;;;;5070823;28;20196;-74
2021/01/15 13:55:16;;;;;;;9.07;6.55;;;;;;;;;;5077335;28;20180;-74
2021/01/15 13:57:43;;;;;;;8.95;5.65;;;;;;;;;;5089063;28;20205;-73
2021/01/15 14:00:09;;;;;;;7.57;5.45;;;;;;;;;;5089563;28;20182;-75
2021/01/15 14:02:45;;;;;;;6.70;5.35;;;;;;;;;;5087700;28;20215;-72
2021/01/15 14:05:11;;;;;;;7.68;5.65;;;;;;;;;;5089029;28;20206;-75
2021/01/15 14:07:38;;;;;;;7.72;5.18;;;;;;;;;;5089469;28;20199;-75
2021/01/15 14:10:09;;;;;;;6.63;3.85;;;;;;;;;;5101287;28;20190;-74
2021/01/15 14:12:35;;;;;;;7.82;5.55;;;;;;;;;;5069367;28;20235;-74
2021/01/15 14:15:01;;;;;;;6.75;5.43;;;;;;;;;;5088486;28;20184;-73
2021/01/15 14:17:27;;;;;;;6.93;5.20;;;;;;;;;;5089627;28;20179;-76
2021/01/15 14:19:53;;;;;;;7.45;5.07;;;;;;;;;;5072232;28;20176;-77
2021/01/15 14:22:19;;;;;;;8.25;5.68;;;;;;;;;;5069434;28;20203;-75
2021/01/15 14:24:46;;;;;;;6.72;4.45;;;;;;;;;;5084932;28;20256;-74
2021/01/15 14:27:12;;;;;;;9.60;3.90;;;;;;;;;;5089037;28;20224;-74
2021/01/15 14:29:38;;;;;;;5.43;3.80;;;;;;;;;;5084209;28;20180;-74